sensor_id;sensor_type;location;lat;lon;timestamp;P1;durP1;ratioP1;P2;durP2;ratioP2
10170;SDS011;5127;50.922;6.988;2022-11-20T00:01:56;12.77;;;10.17;;
10170;SDS011;5127;50.922;6.988;2022-11-20T00:04:24;12.10;;;10.10;;
10170;SDS011;5127;50.922;6.988;2022-11-20T00:06:51;12.47;;;9.70;;
10170;SDS011;5127;50.922;6.988;2022-11-20T00:09:18;10.73;;;9.43;;
10170;SDS011;5127;50.922;6.988;2022-11-20T00:11:46;10.60;;;9.30;;
10170;SDS011;5127;50.922;6.988;2022-11-20T00:14:13;11.77;;;10.37;;
10170;SDS011;5127;50.922;6.988;2022-11-20T00:16:40;12.47;;;10.37;;
10170;SDS011;5127;50.922;6.988;2022-11-20T00:19:09;11.60;;;9.27;;
10170;SDS011;5127;50.922;6.988;2022-11-20T00:21:36;12.67;;;9.63;;
10170;SDS011;5127;50.922;6.988;2022-11-20T00:24:04;11.47;;;9.60;;
10170;SDS011;5127;50.922;6.988;2022-11-20T00:26:32;12.30;;;10.23;;
10170;SDS011;5127;50.922;6.988;2022-11-20T00:29:00;10.50;;;9.03;;
10170;SDS011;5127;50.922;6.988;2022-11-20T00:31:28;13.10;;;9.57;;
10170;SDS011;5127;50.922;6.988;2022-11-20T00:33:58;11.13;;;9.50;;
10170;SDS011;5127;50.922;6.988;2022-11-20T00:36:28;11.00;;;9.80;;
10170;SDS011;5127;50.922;6.988;2022-11-20T00:38:58;10.87;;;9.73;;
10170;SDS011;5127;50.922;6.988;2022-11-20T00:41:26;12.03;;;9.80;;
10170;SDS011;5127;50.922;6.988;2022-11-20T00:43:55;12.73;;;10.07;;
10170;SDS011;5127;50.922;6.988;2022-11-20T00:46:23;11.00;;;9.40;;
10170;SDS011;5127;50.922;6.988;2022-11-20T00:48:51;11.43;;;9.47;;
10170;SDS011;5127;50.922;6.988;2022-11-20T00:51:20;10.67;;;9.20;;
10170;SDS011;5127;50.922;6.988;2022-11-20T00:53:50;10.30;;;8.97;;
10170;SDS011;5127;50.922;6.988;2022-11-20T00:56:18;11.43;;;9.40;;
10170;SDS011;5127;50.922;6.988;2022-11-20T00:58:46;11.80;;;10.23;;
10170;SDS011;5127;50.922;6.988;2022-11-20T01:01:15;10.67;;;9.33;;
10170;SDS011;5127;50.922;6.988;2022-11-20T01:03:44;11.53;;;9.67;;
10170;SDS011;5127;50.922;6.988;2022-11-20T01:06:13;12.27;;;10.53;;
10170;SDS011;5127;50.922;6.988;2022-11-20T01:08:42;12.60;;;10.07;;
10170;SDS011;5127;50.922;6.988;2022-11-20T01:11:12;11.50;;;9.40;;
10170;SDS011;5127;50.922;6.988;2022-11-20T01:13:41;12.20;;;10.50;;
10170;SDS011;5127;50.922;6.988;2022-11-20T01:16:09;10.73;;;9.43;;
10170;SDS011;5127;50.922;6.988;2022-11-20T01:18:39;12.97;;;10.20;;
10170;SDS011;5127;50.922;6.988;2022-11-20T01:21:09;10.60;;;9.37;;
10170;SDS011;5127;50.922;6.988;2022-11-20T01:23:38;11.60;;;9.87;;
10170;SDS011;5127;50.922;6.988;2022-11-20T01:26:07;13.20;;;10.87;;
10170;SDS011;5127;50.922;6.988;2022-11-20T01:28:37;11.60;;;10.23;;
10170;SDS011;5127;50.922;6.988;2022-11-20T01:31:12;10.90;;;9.73;;
10170;SDS011;5127;50.922;6.988;2022-11-20T01:33:40;11.87;;;10.07;;
10170;SDS011;5127;50.922;6.988;2022-11-20T01:36:09;12.03;;;9.43;;
10170;SDS011;5127;50.922;6.988;2022-11-20T01:38:37;11.10;;;9.73;;
10170;SDS011;5127;50.922;6.988;2022-11-20T01:41:05;10.23;;;9.10;;
10170;SDS011;5127;50.922;6.988;2022-11-20T01:43:33;11.27;;;9.03;;
10170;SDS011;5127;50.922;6.988;2022-11-20T01:46:13;9.07;;;8.13;;
10170;SDS011;5127;50.922;6.988;2022-11-20T01:48:43;10.20;;;8.83;;
10170;SDS011;5127;50.922;6.988;2022-11-20T01:51:21;10.97;;;9.00;;
10170;SDS011;5127;50.922;6.988;2022-11-20T01:53:52;10.00;;;8.90;;
10170;SDS011;5127;50.922;6.988;2022-11-20T01:56:22;11.07;;;9.20;;
10170;SDS011;5127;50.922;6.988;2022-11-20T01:58:50;10.93;;;8.93;;
10170;SDS011;5127;50.922;6.988;2022-11-20T02:01:21;10.70;;;9.17;;
10170;SDS011;5127;50.922;6.988;2022-11-20T02:03:49;10.83;;;9.20;;
10170;SDS011;5127;50.922;6.988;2022-11-20T02:06:19;12.17;;;9.83;;
10170;SDS011;5127;50.922;6.988;2022-11-20T02:08:50;17.17;;;11.90;;
10170;SDS011;5127;50.922;6.988;2022-11-20T02:11:18;18.10;;;11.40;;
10170;SDS011;5127;50.922;6.988;2022-11-20T02:13:45;25.93;;;14.33;;
10170;SDS011;5127;50.922;6.988;2022-11-20T02:16:15;15.70;;;11.27;;
10170;SDS011;5127;50.922;6.988;2022-11-20T02:18:46;13.60;;;10.47;;
10170;SDS011;5127;50.922;6.988;2022-11-20T02:21:19;16.17;;;11.40;;
10170;SDS011;5127;50.922;6.988;2022-11-20T02:23:57;14.10;;;10.30;;
10170;SDS011;5127;50.922;6.988;2022-11-20T02:26:30;11.03;;;9.30;;
10170;SDS011;5127;50.922;6.988;2022-11-20T02:29:00;10.13;;;9.00;;
10170;SDS011;5127;50.922;6.988;2022-11-20T02:31:28;11.03;;;9.60;;
10170;SDS011;5127;50.922;6.988;2022-11-20T02:33:56;10.67;;;9.00;;
10170;SDS011;5127;50.922;6.988;2022-11-20T02:36:24;9.30;;;8.27;;
10170;SDS011;5127;50.922;6.988;2022-11-20T02:38:54;10.93;;;9.37;;
10170;SDS011;5127;50.922;6.988;2022-11-20T02:41:29;9.87;;;8.87;;
10170;SDS011;5127;50.922;6.988;2022-11-20T02:43:57;10.83;;;8.70;;
10170;SDS011;5127;50.922;6.988;2022-11-20T02:46:25;10.97;;;9.47;;
10170;SDS011;5127;50.922;6.988;2022-11-20T02:48:52;11.63;;;10.07;;
10170;SDS011;5127;50.922;6.988;2022-11-20T02:51:19;13.03;;;10.00;;
10170;SDS011;5127;50.922;6.988;2022-11-20T02:53:46;15.30;;;10.43;;
10170;SDS011;5127;50.922;6.988;2022-11-20T02:56:13;14.40;;;10.40;;
10170;SDS011;5127;50.922;6.988;2022-11-20T02:58:43;16.40;;;11.20;;
10170;SDS011;5127;50.922;6.988;2022-11-20T03:01:10;15.80;;;11.10;;
10170;SDS011;5127;50.922;6.988;2022-11-20T03:07:25;10.07;;;8.33;;
10170;SDS011;5127;50.922;6.988;2022-11-20T03:09:52;11.73;;;9.33;;
10170;SDS011;5127;50.922;6.988;2022-11-20T03:12:20;11.13;;;9.40;;
10170;SDS011;5127;50.922;6.988;2022-11-20T03:14:48;10.70;;;9.60;;
10170;SDS011;5127;50.922;6.988;2022-11-20T03:17:15;11.20;;;9.27;;
10170;SDS011;5127;50.922;6.988;2022-11-20T03:19:43;10.70;;;8.80;;
10170;SDS011;5127;50.922;6.988;2022-11-20T03:22:10;11.53;;;9.87;;
10170;SDS011;5127;50.922;6.988;2022-11-20T03:24:37;10.80;;;9.07;;
10170;SDS011;5127;50.922;6.988;2022-11-20T03:27:04;11.87;;;9.43;;
10170;SDS011;5127;50.922;6.988;2022-11-20T03:29:32;10.13;;;8.93;;
10170;SDS011;5127;50.922;6.988;2022-11-20T03:32:00;12.10;;;10.23;;
10170;SDS011;5127;50.922;6.988;2022-11-20T03:34:28;13.10;;;9.60;;
10170;SDS011;5127;50.922;6.988;2022-11-20T03:36:55;13.00;;;10.30;;
10170;SDS011;5127;50.922;6.988;2022-11-20T03:39:22;10.23;;;8.83;;
10170;SDS011;5127;50.922;6.988;2022-11-20T03:41:49;13.33;;;9.37;;
10170;SDS011;5127;50.922;6.988;2022-11-20T03:44:17;11.17;;;9.50;;
10170;SDS011;5127;50.922;6.988;2022-11-20T03:46:47;11.70;;;10.23;;
10170;SDS011;5127;50.922;6.988;2022-11-20T03:49:16;11.03;;;9.43;;
10170;SDS011;5127;50.922;6.988;2022-11-20T03:51:43;11.50;;;9.93;;
10170;SDS011;5127;50.922;6.988;2022-11-20T03:54:10;12.13;;;9.97;;
10170;SDS011;5127;50.922;6.988;2022-11-20T03:56:38;12.00;;;10.50;;
10170;SDS011;5127;50.922;6.988;2022-11-20T03:59:05;12.07;;;10.30;;
10170;SDS011;5127;50.922;6.988;2022-11-20T04:01:34;13.03;;;10.13;;
10170;SDS011;5127;50.922;6.988;2022-11-20T04:04:02;11.60;;;10.40;;
10170;SDS011;5127;50.922;6.988;2022-11-20T04:06:33;13.13;;;10.60;;
10170;SDS011;5127;50.922;6.988;2022-11-20T04:09:02;10.53;;;9.43;;
10170;SDS011;5127;50.922;6.988;2022-11-20T04:11:30;12.70;;;10.70;;
10170;SDS011;5127;50.922;6.988;2022-11-20T04:13:59;12.40;;;10.77;;
10170;SDS011;5127;50.922;6.988;2022-11-20T04:16:28;14.53;;;10.33;;
10170;SDS011;5127;50.922;6.988;2022-11-20T04:18:58;11.73;;;9.87;;
10170;SDS011;5127;50.922;6.988;2022-11-20T04:21:26;10.93;;;9.50;;
10170;SDS011;5127;50.922;6.988;2022-11-20T04:23:55;13.73;;;10.43;;
10170;SDS011;5127;50.922;6.988;2022-11-20T04:26:23;12.60;;;10.03;;
10170;SDS011;5127;50.922;6.988;2022-11-20T04:28:51;12.37;;;10.27;;
10170;SDS011;5127;50.922;6.988;2022-11-20T04:31:19;13.20;;;10.37;;
10170;SDS011;5127;50.922;6.988;2022-11-20T04:33:48;11.57;;;9.77;;
10170;SDS011;5127;50.922;6.988;2022-11-20T04:36:16;11.83;;;10.00;;
10170;SDS011;5127;50.922;6.988;2022-11-20T04:38:45;12.97;;;10.53;;
10170;SDS011;5127;50.922;6.988;2022-11-20T04:41:16;12.00;;;9.43;;
10170;SDS011;5127;50.922;6.988;2022-11-20T04:43:45;12.33;;;10.33;;
10170;SDS011;5127;50.922;6.988;2022-11-20T04:46:14;12.73;;;10.07;;
10170;SDS011;5127;50.922;6.988;2022-11-20T04:48:41;12.80;;;10.33;;
10170;SDS011;5127;50.922;6.988;2022-11-20T04:51:09;14.80;;;11.27;;
10170;SDS011;5127;50.922;6.988;2022-11-20T04:53:36;14.30;;;11.00;;
10170;SDS011;5127;50.922;6.988;2022-11-20T04:56:04;12.73;;;10.43;;
10170;SDS011;5127;50.922;6.988;2022-11-20T04:58:34;12.90;;;10.63;;
10170;SDS011;5127;50.922;6.988;2022-11-20T05:01:02;11.60;;;9.40;;
10170;SDS011;5127;50.922;6.988;2022-11-20T05:03:31;13.40;;;10.83;;
10170;SDS011;5127;50.922;6.988;2022-11-20T05:05:59;12.87;;;10.07;;
10170;SDS011;5127;50.922;6.988;2022-11-20T05:08:28;12.87;;;10.40;;
10170;SDS011;5127;50.922;6.988;2022-11-20T05:10:59;12.27;;;10.00;;
10170;SDS011;5127;50.922;6.988;2022-11-20T05:13:27;13.60;;;11.13;;
10170;SDS011;5127;50.922;6.988;2022-11-20T05:15:59;11.73;;;9.87;;
10170;SDS011;5127;50.922;6.988;2022-11-20T05:18:28;9.77;;;8.20;;
10170;SDS011;5127;50.922;6.988;2022-11-20T05:20:55;10.87;;;9.57;;
10170;SDS011;5127;50.922;6.988;2022-11-20T05:23:22;11.90;;;9.97;;
10170;SDS011;5127;50.922;6.988;2022-11-20T05:25:51;14.30;;;9.83;;
10170;SDS011;5127;50.922;6.988;2022-11-20T05:28:19;13.13;;;10.50;;
10170;SDS011;5127;50.922;6.988;2022-11-20T05:30:47;11.27;;;9.97;;
10170;SDS011;5127;50.922;6.988;2022-11-20T05:33:16;10.53;;;9.00;;
10170;SDS011;5127;50.922;6.988;2022-11-20T05:35:43;13.73;;;11.10;;
10170;SDS011;5127;50.922;6.988;2022-11-20T05:38:11;14.07;;;11.23;;
10170;SDS011;5127;50.922;6.988;2022-11-20T05:40:38;11.97;;;9.93;;
10170;SDS011;5127;50.922;6.988;2022-11-20T05:43:05;13.53;;;11.40;;
10170;SDS011;5127;50.922;6.988;2022-11-20T05:45:32;13.27;;;10.30;;
10170;SDS011;5127;50.922;6.988;2022-11-20T05:48:00;13.33;;;11.10;;
10170;SDS011;5127;50.922;6.988;2022-11-20T05:50:29;16.80;;;11.57;;
10170;SDS011;5127;50.922;6.988;2022-11-20T05:52:57;16.30;;;12.33;;
10170;SDS011;5127;50.922;6.988;2022-11-20T05:55:24;18.80;;;13.27;;
10170;SDS011;5127;50.922;6.988;2022-11-20T05:57:52;15.93;;;11.87;;
10170;SDS011;5127;50.922;6.988;2022-11-20T06:00:20;14.57;;;11.33;;
10170;SDS011;5127;50.922;6.988;2022-11-20T06:02:47;13.30;;;10.43;;
10170;SDS011;5127;50.922;6.988;2022-11-20T06:05:15;12.77;;;10.27;;
10170;SDS011;5127;50.922;6.988;2022-11-20T06:07:43;13.80;;;11.07;;
10170;SDS011;5127;50.922;6.988;2022-11-20T06:10:11;13.60;;;10.80;;
10170;SDS011;5127;50.922;6.988;2022-11-20T06:12:38;11.90;;;9.90;;
10170;SDS011;5127;50.922;6.988;2022-11-20T06:15:06;14.27;;;10.50;;
10170;SDS011;5127;50.922;6.988;2022-11-20T06:17:33;12.30;;;10.20;;
10170;SDS011;5127;50.922;6.988;2022-11-20T06:20:01;12.80;;;10.33;;
10170;SDS011;5127;50.922;6.988;2022-11-20T06:22:28;12.50;;;9.97;;
10170;SDS011;5127;50.922;6.988;2022-11-20T06:24:56;12.83;;;10.33;;
10170;SDS011;5127;50.922;6.988;2022-11-20T06:27:24;12.77;;;10.70;;
10170;SDS011;5127;50.922;6.988;2022-11-20T06:29:51;11.20;;;9.50;;
10170;SDS011;5127;50.922;6.988;2022-11-20T06:32:18;14.17;;;11.00;;
10170;SDS011;5127;50.922;6.988;2022-11-20T06:34:45;11.80;;;10.37;;
10170;SDS011;5127;50.922;6.988;2022-11-20T06:37:13;11.60;;;9.97;;
10170;SDS011;5127;50.922;6.988;2022-11-20T06:39:40;11.03;;;9.37;;
10170;SDS011;5127;50.922;6.988;2022-11-20T06:42:08;12.40;;;9.90;;
10170;SDS011;5127;50.922;6.988;2022-11-20T06:44:36;12.00;;;9.37;;
10170;SDS011;5127;50.922;6.988;2022-11-20T06:47:03;13.07;;;10.23;;
10170;SDS011;5127;50.922;6.988;2022-11-20T06:49:30;13.27;;;9.80;;
10170;SDS011;5127;50.922;6.988;2022-11-20T06:52:00;12.63;;;10.27;;
10170;SDS011;5127;50.922;6.988;2022-11-20T06:54:27;10.90;;;9.20;;
10170;SDS011;5127;50.922;6.988;2022-11-20T06:56:54;11.93;;;9.87;;
10170;SDS011;5127;50.922;6.988;2022-11-20T06:59:22;12.70;;;10.53;;
10170;SDS011;5127;50.922;6.988;2022-11-20T07:01:50;13.93;;;10.47;;
10170;SDS011;5127;50.922;6.988;2022-11-20T07:04:17;13.53;;;10.87;;
10170;SDS011;5127;50.922;6.988;2022-11-20T07:06:44;13.33;;;10.17;;
10170;SDS011;5127;50.922;6.988;2022-11-20T07:09:12;12.70;;;10.40;;
10170;SDS011;5127;50.922;6.988;2022-11-20T07:11:39;11.67;;;10.00;;
10170;SDS011;5127;50.922;6.988;2022-11-20T07:14:06;13.13;;;9.90;;
10170;SDS011;5127;50.922;6.988;2022-11-20T07:16:35;11.90;;;10.23;;
10170;SDS011;5127;50.922;6.988;2022-11-20T07:19:02;11.10;;;9.17;;
10170;SDS011;5127;50.922;6.988;2022-11-20T07:21:29;12.70;;;10.43;;
10170;SDS011;5127;50.922;6.988;2022-11-20T07:23:57;12.70;;;10.43;;
10170;SDS011;5127;50.922;6.988;2022-11-20T07:26:24;12.03;;;9.27;;
10170;SDS011;5127;50.922;6.988;2022-11-20T07:28:51;13.30;;;10.60;;
10170;SDS011;5127;50.922;6.988;2022-11-20T07:31:18;11.20;;;9.40;;
10170;SDS011;5127;50.922;6.988;2022-11-20T07:33:47;12.73;;;10.43;;
10170;SDS011;5127;50.922;6.988;2022-11-20T07:36:14;11.87;;;9.97;;
10170;SDS011;5127;50.922;6.988;2022-11-20T07:38:41;11.33;;;9.50;;
10170;SDS011;5127;50.922;6.988;2022-11-20T07:41:09;11.67;;;10.43;;
10170;SDS011;5127;50.922;6.988;2022-11-20T07:43:36;12.20;;;10.03;;
10170;SDS011;5127;50.922;6.988;2022-11-20T07:46:03;12.60;;;10.20;;
10170;SDS011;5127;50.922;6.988;2022-11-20T07:48:31;12.20;;;10.53;;
10170;SDS011;5127;50.922;6.988;2022-11-20T07:50:59;12.57;;;10.47;;
10170;SDS011;5127;50.922;6.988;2022-11-20T07:53:27;11.37;;;9.93;;
10170;SDS011;5127;50.922;6.988;2022-11-20T07:55:54;12.27;;;9.73;;
10170;SDS011;5127;50.922;6.988;2022-11-20T07:58:22;11.77;;;10.13;;
10170;SDS011;5127;50.922;6.988;2022-11-20T08:00:49;11.77;;;10.00;;
10170;SDS011;5127;50.922;6.988;2022-11-20T08:03:16;12.33;;;9.83;;
10170;SDS011;5127;50.922;6.988;2022-11-20T08:05:43;12.33;;;10.43;;
10170;SDS011;5127;50.922;6.988;2022-11-20T08:08:12;12.53;;;10.93;;
10170;SDS011;5127;50.922;6.988;2022-11-20T08:10:39;13.37;;;11.10;;
10170;SDS011;5127;50.922;6.988;2022-11-20T08:13:08;14.83;;;11.13;;
10170;SDS011;5127;50.922;6.988;2022-11-20T08:15:53;13.27;;;10.70;;
10170;SDS011;5127;50.922;6.988;2022-11-20T08:18:20;11.83;;;10.13;;
10170;SDS011;5127;50.922;6.988;2022-11-20T08:20:47;13.63;;;11.30;;
10170;SDS011;5127;50.922;6.988;2022-11-20T08:23:16;14.13;;;11.40;;
10170;SDS011;5127;50.922;6.988;2022-11-20T08:25:43;11.67;;;10.23;;
10170;SDS011;5127;50.922;6.988;2022-11-20T08:28:15;15.80;;;10.87;;
10170;SDS011;5127;50.922;6.988;2022-11-20T08:30:42;14.07;;;11.53;;
10170;SDS011;5127;50.922;6.988;2022-11-20T08:33:11;14.50;;;10.93;;
10170;SDS011;5127;50.922;6.988;2022-11-20T08:35:38;14.07;;;11.37;;
10170;SDS011;5127;50.922;6.988;2022-11-20T08:38:06;15.67;;;10.83;;
10170;SDS011;5127;50.922;6.988;2022-11-20T08:40:36;11.30;;;9.83;;
10170;SDS011;5127;50.922;6.988;2022-11-20T08:43:03;16.33;;;11.63;;
10170;SDS011;5127;50.922;6.988;2022-11-20T08:45:30;13.80;;;11.53;;
10170;SDS011;5127;50.922;6.988;2022-11-20T08:47:59;13.80;;;11.37;;
10170;SDS011;5127;50.922;6.988;2022-11-20T08:50:26;13.87;;;11.30;;
10170;SDS011;5127;50.922;6.988;2022-11-20T08:52:54;13.33;;;10.70;;
10170;SDS011;5127;50.922;6.988;2022-11-20T08:55:21;13.97;;;11.20;;
10170;SDS011;5127;50.922;6.988;2022-11-20T08:57:50;14.93;;;11.00;;
10170;SDS011;5127;50.922;6.988;2022-11-20T09:00:17;14.03;;;11.37;;
10170;SDS011;5127;50.922;6.988;2022-11-20T09:02:44;14.33;;;11.10;;
10170;SDS011;5127;50.922;6.988;2022-11-20T09:05:12;13.87;;;11.67;;
10170;SDS011;5127;50.922;6.988;2022-11-20T09:07:39;13.97;;;12.27;;
10170;SDS011;5127;50.922;6.988;2022-11-20T09:10:07;14.27;;;11.37;;
10170;SDS011;5127;50.922;6.988;2022-11-20T09:12:35;14.53;;;12.30;;
10170;SDS011;5127;50.922;6.988;2022-11-20T09:15:04;14.40;;;11.83;;
10170;SDS011;5127;50.922;6.988;2022-11-20T09:17:32;13.70;;;11.27;;
10170;SDS011;5127;50.922;6.988;2022-11-20T09:19:59;14.80;;;11.67;;
10170;SDS011;5127;50.922;6.988;2022-11-20T09:22:27;15.97;;;12.50;;
10170;SDS011;5127;50.922;6.988;2022-11-20T09:24:54;16.10;;;12.93;;
10170;SDS011;5127;50.922;6.988;2022-11-20T09:27:21;15.13;;;11.87;;
10170;SDS011;5127;50.922;6.988;2022-11-20T09:29:48;15.37;;;12.20;;
10170;SDS011;5127;50.922;6.988;2022-11-20T09:32:17;15.13;;;12.03;;
10170;SDS011;5127;50.922;6.988;2022-11-20T09:34:44;14.40;;;11.57;;
10170;SDS011;5127;50.922;6.988;2022-11-20T09:37:12;17.63;;;12.53;;
10170;SDS011;5127;50.922;6.988;2022-11-20T09:39:39;15.37;;;12.03;;
10170;SDS011;5127;50.922;6.988;2022-11-20T09:42:19;15.50;;;12.37;;
10170;SDS011;5127;50.922;6.988;2022-11-20T09:45:01;14.17;;;11.80;;
10170;SDS011;5127;50.922;6.988;2022-11-20T09:47:46;16.30;;;12.80;;
10170;SDS011;5127;50.922;6.988;2022-11-20T09:50:27;16.40;;;12.60;;
10170;SDS011;5127;50.922;6.988;2022-11-20T09:53:04;14.47;;;11.13;;
10170;SDS011;5127;50.922;6.988;2022-11-20T09:55:43;14.00;;;11.77;;
10170;SDS011;5127;50.922;6.988;2022-11-20T09:58:13;14.43;;;11.77;;
10170;SDS011;5127;50.922;6.988;2022-11-20T10:00:47;15.80;;;12.10;;
10170;SDS011;5127;50.922;6.988;2022-11-20T10:03:17;16.03;;;12.40;;
10170;SDS011;5127;50.922;6.988;2022-11-20T10:05:56;13.97;;;11.80;;
10170;SDS011;5127;50.922;6.988;2022-11-20T10:08:28;16.43;;;12.40;;
10170;SDS011;5127;50.922;6.988;2022-11-20T10:11:03;14.40;;;11.63;;
10170;SDS011;5127;50.922;6.988;2022-11-20T10:13:36;14.57;;;11.33;;
10170;SDS011;5127;50.922;6.988;2022-11-20T10:16:17;14.67;;;11.70;;
10170;SDS011;5127;50.922;6.988;2022-11-20T10:18:56;15.60;;;12.67;;
10170;SDS011;5127;50.922;6.988;2022-11-20T10:21:38;16.17;;;12.30;;
10170;SDS011;5127;50.922;6.988;2022-11-20T10:24:23;16.93;;;12.63;;
10170;SDS011;5127;50.922;6.988;2022-11-20T10:27:03;18.53;;;13.70;;
10170;SDS011;5127;50.922;6.988;2022-11-20T10:29:39;15.27;;;12.33;;
10170;SDS011;5127;50.922;6.988;2022-11-20T10:32:11;15.43;;;12.13;;
10170;SDS011;5127;50.922;6.988;2022-11-20T10:34:46;15.87;;;12.53;;
10170;SDS011;5127;50.922;6.988;2022-11-20T10:37:17;16.97;;;12.60;;
10170;SDS011;5127;50.922;6.988;2022-11-20T10:39:49;17.10;;;13.77;;
10170;SDS011;5127;50.922;6.988;2022-11-20T10:42:22;17.47;;;13.33;;
10170;SDS011;5127;50.922;6.988;2022-11-20T10:44:58;15.23;;;12.43;;
10170;SDS011;5127;50.922;6.988;2022-11-20T10:47:37;15.90;;;12.33;;
10170;SDS011;5127;50.922;6.988;2022-11-20T10:50:08;15.13;;;13.53;;
10170;SDS011;5127;50.922;6.988;2022-11-20T10:52:41;18.83;;;14.27;;
10170;SDS011;5127;50.922;6.988;2022-11-20T10:55:20;16.93;;;12.63;;
10170;SDS011;5127;50.922;6.988;2022-11-20T10:57:59;16.40;;;12.73;;
10170;SDS011;5127;50.922;6.988;2022-11-20T11:00:35;15.87;;;12.87;;
10170;SDS011;5127;50.922;6.988;2022-11-20T11:03:02;15.70;;;13.23;;
10170;SDS011;5127;50.922;6.988;2022-11-20T11:05:43;15.20;;;12.90;;
10170;SDS011;5127;50.922;6.988;2022-11-20T11:08:16;16.80;;;13.17;;
10170;SDS011;5127;50.922;6.988;2022-11-20T11:10:46;18.77;;;12.60;;
10170;SDS011;5127;50.922;6.988;2022-11-20T11:13:19;16.10;;;12.30;;
10170;SDS011;5127;50.922;6.988;2022-11-20T11:15:53;15.63;;;12.33;;
10170;SDS011;5127;50.922;6.988;2022-11-20T11:18:39;15.70;;;11.73;;
10170;SDS011;5127;50.922;6.988;2022-11-20T11:21:09;16.33;;;12.23;;
10170;SDS011;5127;50.922;6.988;2022-11-20T11:23:37;15.90;;;11.90;;
10170;SDS011;5127;50.922;6.988;2022-11-20T11:26:07;16.53;;;13.10;;
10170;SDS011;5127;50.922;6.988;2022-11-20T11:28:52;17.90;;;12.73;;
10170;SDS011;5127;50.922;6.988;2022-11-20T11:31:23;16.40;;;12.40;;
10170;SDS011;5127;50.922;6.988;2022-11-20T11:33:52;13.63;;;11.50;;
10170;SDS011;5127;50.922;6.988;2022-11-20T11:36:31;15.70;;;12.27;;
10170;SDS011;5127;50.922;6.988;2022-11-20T11:39:00;19.07;;;13.47;;
10170;SDS011;5127;50.922;6.988;2022-11-20T11:41:30;17.40;;;13.23;;
10170;SDS011;5127;50.922;6.988;2022-11-20T11:44:01;17.13;;;13.27;;
10170;SDS011;5127;50.922;6.988;2022-11-20T11:46:59;16.87;;;13.37;;
10170;SDS011;5127;50.922;6.988;2022-11-20T11:49:27;16.67;;;12.97;;
10170;SDS011;5127;50.922;6.988;2022-11-20T11:51:59;17.97;;;13.73;;
10170;SDS011;5127;50.922;6.988;2022-11-20T11:54:32;17.83;;;13.37;;
10170;SDS011;5127;50.922;6.988;2022-11-20T11:57:05;17.77;;;13.57;;
10170;SDS011;5127;50.922;6.988;2022-11-20T11:59:41;16.80;;;13.60;;
10170;SDS011;5127;50.922;6.988;2022-11-20T12:02:22;17.03;;;13.27;;
10170;SDS011;5127;50.922;6.988;2022-11-20T12:04:57;17.43;;;12.73;;
10170;SDS011;5127;50.922;6.988;2022-11-20T12:07:35;18.63;;;13.83;;
10170;SDS011;5127;50.922;6.988;2022-11-20T12:10:12;16.90;;;13.10;;
10170;SDS011;5127;50.922;6.988;2022-11-20T12:12:44;15.67;;;12.47;;
10170;SDS011;5127;50.922;6.988;2022-11-20T12:15:22;15.90;;;12.47;;
10170;SDS011;5127;50.922;6.988;2022-11-20T12:17:53;14.63;;;11.63;;
10170;SDS011;5127;50.922;6.988;2022-11-20T12:20:20;17.67;;;13.13;;
10170;SDS011;5127;50.922;6.988;2022-11-20T12:22:54;16.23;;;12.27;;
10170;SDS011;5127;50.922;6.988;2022-11-20T12:25:27;16.57;;;11.83;;
10170;SDS011;5127;50.922;6.988;2022-11-20T12:31:11;15.63;;;12.73;;
10170;SDS011;5127;50.922;6.988;2022-11-20T12:33:56;17.17;;;12.77;;
10170;SDS011;5127;50.922;6.988;2022-11-20T12:36:35;15.17;;;12.13;;
10170;SDS011;5127;50.922;6.988;2022-11-20T12:39:16;15.40;;;11.93;;
10170;SDS011;5127;50.922;6.988;2022-11-20T12:42:13;17.17;;;12.53;;
10170;SDS011;5127;50.922;6.988;2022-11-20T12:45:25;15.90;;;12.20;;
10170;SDS011;5127;50.922;6.988;2022-11-20T12:48:16;16.17;;;12.90;;
10170;SDS011;5127;50.922;6.988;2022-11-20T12:50:52;16.07;;;11.60;;
10170;SDS011;5127;50.922;6.988;2022-11-20T12:53:33;16.10;;;12.33;;
10170;SDS011;5127;50.922;6.988;2022-11-20T12:56:12;15.73;;;11.93;;
10170;SDS011;5127;50.922;6.988;2022-11-20T12:58:52;15.90;;;11.67;;
10170;SDS011;5127;50.922;6.988;2022-11-20T13:01:30;15.10;;;11.67;;
10170;SDS011;5127;50.922;6.988;2022-11-20T13:04:16;18.33;;;13.20;;
10170;SDS011;5127;50.922;6.988;2022-11-20T13:06:55;14.53;;;11.83;;
10170;SDS011;5127;50.922;6.988;2022-11-20T13:09:23;15.83;;;12.80;;
10170;SDS011;5127;50.922;6.988;2022-11-20T13:11:55;15.67;;;12.70;;
10170;SDS011;5127;50.922;6.988;2022-11-20T13:14:31;17.17;;;12.87;;
10170;SDS011;5127;50.922;6.988;2022-11-20T13:17:05;16.53;;;12.73;;
10170;SDS011;5127;50.922;6.988;2022-11-20T13:19:38;14.83;;;11.13;;
10170;SDS011;5127;50.922;6.988;2022-11-20T13:22:07;16.33;;;12.27;;
10170;SDS011;5127;50.922;6.988;2022-11-20T13:24:35;14.30;;;11.77;;
10170;SDS011;5127;50.922;6.988;2022-11-20T13:27:05;15.23;;;12.03;;
10170;SDS011;5127;50.922;6.988;2022-11-20T13:29:45;15.07;;;11.57;;
10170;SDS011;5127;50.922;6.988;2022-11-20T13:32:25;15.97;;;11.70;;
10170;SDS011;5127;50.922;6.988;2022-11-20T13:34:58;15.80;;;11.97;;
10170;SDS011;5127;50.922;6.988;2022-11-20T13:37:28;17.07;;;12.20;;
10170;SDS011;5127;50.922;6.988;2022-11-20T13:40:13;17.20;;;12.60;;
10170;SDS011;5127;50.922;6.988;2022-11-20T13:42:54;14.30;;;11.77;;
10170;SDS011;5127;50.922;6.988;2022-11-20T13:45:24;14.87;;;12.20;;
10170;SDS011;5127;50.922;6.988;2022-11-20T13:47:53;15.97;;;11.50;;
10170;SDS011;5127;50.922;6.988;2022-11-20T13:50:22;15.27;;;12.07;;
10170;SDS011;5127;50.922;6.988;2022-11-20T13:53:05;15.10;;;11.33;;
10170;SDS011;5127;50.922;6.988;2022-11-20T13:55:54;14.47;;;11.47;;
10170;SDS011;5127;50.922;6.988;2022-11-20T13:58:34;15.53;;;11.87;;
10170;SDS011;5127;50.922;6.988;2022-11-20T14:01:11;15.43;;;11.73;;
10170;SDS011;5127;50.922;6.988;2022-11-20T14:03:43;14.50;;;11.53;;
10170;SDS011;5127;50.922;6.988;2022-11-20T14:06:11;15.73;;;11.73;;
10170;SDS011;5127;50.922;6.988;2022-11-20T14:08:43;14.60;;;11.33;;
10170;SDS011;5127;50.922;6.988;2022-11-20T14:11:14;15.93;;;11.73;;
10170;SDS011;5127;50.922;6.988;2022-11-20T14:13:54;13.93;;;10.33;;
10170;SDS011;5127;50.922;6.988;2022-11-20T14:16:26;14.53;;;10.97;;
10170;SDS011;5127;50.922;6.988;2022-11-20T14:18:55;14.10;;;10.27;;
10170;SDS011;5127;50.922;6.988;2022-11-20T14:21:25;14.53;;;10.63;;
10170;SDS011;5127;50.922;6.988;2022-11-20T14:23:53;14.73;;;10.80;;
10170;SDS011;5127;50.922;6.988;2022-11-20T14:26:29;13.10;;;10.40;;
10170;SDS011;5127;50.922;6.988;2022-11-20T14:28:58;12.97;;;10.33;;
10170;SDS011;5127;50.922;6.988;2022-11-20T14:31:26;13.80;;;10.70;;
10170;SDS011;5127;50.922;6.988;2022-11-20T14:33:54;14.80;;;10.90;;
10170;SDS011;5127;50.922;6.988;2022-11-20T14:36:24;13.80;;;10.57;;
10170;SDS011;5127;50.922;6.988;2022-11-20T14:38:52;13.00;;;10.60;;
10170;SDS011;5127;50.922;6.988;2022-11-20T14:41:20;13.73;;;10.90;;
10170;SDS011;5127;50.922;6.988;2022-11-20T14:43:50;14.37;;;10.90;;
10170;SDS011;5127;50.922;6.988;2022-11-20T14:46:22;12.97;;;9.87;;
10170;SDS011;5127;50.922;6.988;2022-11-20T14:48:51;12.37;;;9.93;;
10170;SDS011;5127;50.922;6.988;2022-11-20T14:51:29;12.63;;;10.13;;
10170;SDS011;5127;50.922;6.988;2022-11-20T14:54:07;11.87;;;9.93;;
10170;SDS011;5127;50.922;6.988;2022-11-20T14:56:36;14.03;;;10.47;;
10170;SDS011;5127;50.922;6.988;2022-11-20T14:59:03;12.97;;;10.43;;
10170;SDS011;5127;50.922;6.988;2022-11-20T15:01:32;13.40;;;10.17;;
10170;SDS011;5127;50.922;6.988;2022-11-20T15:04:01;12.60;;;9.77;;
10170;SDS011;5127;50.922;6.988;2022-11-20T15:06:32;13.77;;;11.07;;